createdAt,value
2023-04-18T00:00:45.503Z,54014.06
2023-04-18T00:03:16.061Z,54010.06
2023-04-18T00:05:47.994Z,53986.22
2023-04-18T00:08:17.846Z,53980.25
2023-04-18T00:10:46.445Z,53992.19
2023-04-18T00:13:18.448Z,53962.34
2023-04-18T00:15:46.904Z,53962.34
2023-04-18T00:18:17.248Z,53964.34
2023-04-18T00:20:46.195Z,53984.22
2023-04-18T00:23:15.169Z,53974.28
2023-04-18T00:25:44.901Z,53932.53
2023-04-18T00:28:13.252Z,53964.34
2023-04-18T00:30:41.522Z,53958.38
2023-04-18T00:33:10.319Z,53992.19
2023-04-18T00:35:39.302Z,53972.28
2023-04-18T00:38:09.420Z,53958.38
2023-04-18T00:40:38.399Z,53990.19
2023-04-18T00:43:10.278Z,54002.13
2023-04-18T00:45:42.271Z,53950.44
2023-04-18T00:48:12.691Z,53972.28
2023-04-18T00:50:42.062Z,53972.28
2023-04-18T00:53:11.247Z,53986.22
2023-04-18T00:55:40.761Z,53952.41
2023-04-18T00:58:11.269Z,53952.41
2023-04-18T01:00:39.927Z,53964.34
2023-04-18T01:03:10.827Z,53994.16
2023-04-18T01:05:39.915Z,53984.22
2023-04-18T01:08:09.011Z,54002.13
2023-04-18T01:10:38.063Z,53976.28
2023-04-18T01:13:15.247Z,53980.25
2023-04-18T01:15:44.350Z,54006.09
2023-04-18T01:18:14.121Z,54016.03
2023-04-18T01:20:47.398Z,53988.19
2023-04-18T01:23:16.125Z,53972.28
2023-04-18T01:25:46.485Z,53998.16
2023-04-18T01:28:16.129Z,54035.91
2023-04-18T01:30:44.468Z,54016.03
2023-04-18T01:33:13.295Z,54031.94
2023-04-18T01:35:42.212Z,54006.09
2023-04-18T01:38:11.877Z,54020.00
2023-04-18T01:40:40.629Z,54022.00
2023-04-18T01:43:10.679Z,54006.09
2023-04-18T01:45:39.681Z,54033.94
2023-04-18T01:48:10.633Z,54033.94
2023-04-18T01:50:39.481Z,54024.00
2023-04-18T01:53:07.879Z,54079.66
2023-04-18T01:55:36.863Z,54083.66
2023-04-18T01:58:05.415Z,54087.63
2023-04-18T02:00:35.422Z,54085.63
2023-04-18T02:03:03.973Z,54103.53
2023-04-18T02:05:32.517Z,54115.47
2023-04-18T02:08:01.106Z,54093.59
2023-04-18T02:10:29.484Z,54145.28
2023-04-18T02:12:57.832Z,54147.28
2023-04-18T02:15:27.190Z,54143.28
2023-04-18T02:17:57.027Z,54161.19
2023-04-18T02:20:26.335Z,54153.25
2023-04-18T02:22:55.179Z,54155.22
2023-04-18T02:25:23.802Z,54187.03
2023-04-18T02:27:52.305Z,54191.03
2023-04-18T02:30:20.803Z,54191.03
2023-04-18T02:32:49.255Z,54214.88
2023-04-18T02:35:19.356Z,54230.78
2023-04-18T02:37:50.160Z,54234.75
2023-04-18T02:40:20.142Z,54242.72
2023-04-18T02:42:48.666Z,54262.59
2023-04-18T02:45:17.046Z,54232.78
2023-04-18T02:47:54.704Z,54280.50
2023-04-18T02:50:27.305Z,54310.34
2023-04-18T02:52:57.323Z,54348.13
2023-04-18T02:55:32.611Z,54342.16
2023-04-18T02:58:02.066Z,54322.25
2023-04-18T03:00:50.662Z,54328.22
2023-04-18T03:03:37.901Z,54391.84
2023-04-18T03:06:24.923Z,54399.81
2023-04-18T03:08:54.217Z,54459.47
2023-04-18T03:11:23.392Z,54437.59
2023-04-18T03:13:51.855Z,54453.50
2023-04-18T03:16:23.359Z,54487.31
2023-04-18T03:18:52.163Z,54487.31
2023-04-18T03:21:24.439Z,54433.63
2023-04-18T03:23:53.369Z,54521.13
2023-04-18T03:26:26.010Z,54554.94
2023-04-18T03:28:55.690Z,54556.91
2023-04-18T03:31:24.260Z,54592.72
2023-04-18T03:33:52.797Z,54596.69
2023-04-18T03:36:25.439Z,54690.16
2023-04-18T03:38:57.469Z,54721.97
2023-04-18T03:41:26.572Z,54698.13
2023-04-18T03:43:56.437Z,54706.06
2023-04-18T03:46:25.325Z,54747.84
2023-04-18T03:48:56.453Z,54739.88
2023-04-18T03:51:25.083Z,54783.63
2023-04-18T03:53:53.624Z,54817.44
2023-04-18T03:56:23.433Z,54839.31
2023-04-18T03:58:53.920Z,54875.13
2023-04-18T04:01:23.738Z,54891.03
2023-04-18T04:03:54.083Z,54859.22
2023-04-18T04:06:23.326Z,54914.91
2023-04-18T04:08:51.794Z,54906.94
2023-04-18T04:11:26.255Z,54946.72
2023-04-18T04:13:54.639Z,54942.75
2023-04-18T04:16:29.443Z,55044.19
2023-04-18T04:19:01.253Z,54982.53
2023-04-18T04:21:36.991Z,55064.06
2023-04-18T04:24:07.082Z,55101.84
2023-04-18T04:26:44.098Z,55141.63
2023-04-18T04:29:19.320Z,55119.75
2023-04-18T04:31:49.454Z,55163.53
2023-04-18T04:34:27.254Z,55149.59
2023-04-18T04:36:56.315Z,55189.38
2023-04-18T04:39:26.410Z,55213.25
2023-04-18T04:42:28.645Z,55304.75
2023-04-18T04:45:10.719Z,55330.59
2023-04-18T04:47:39.240Z,55316.69
2023-04-18T04:50:14.871Z,55328.63
2023-04-18T04:52:43.434Z,55356.47
2023-04-18T04:55:12.079Z,55370.38
2023-04-18T04:57:44.837Z,55432.06
2023-04-18T05:00:33.533Z,55440.00
2023-04-18T05:03:02.344Z,55459.91
2023-04-18T05:05:31.633Z,55483.78
2023-04-18T05:08:00.196Z,55483.78
2023-04-18T05:10:28.803Z,55535.50
2023-04-18T05:12:58.561Z,55559.34
2023-04-18T05:15:27.064Z,55581.25
2023-04-18T05:17:55.485Z,55607.09
2023-04-18T05:20:24.088Z,55644.91
2023-04-18T05:22:52.603Z,55684.69
2023-04-18T05:25:21.347Z,55716.50
2023-04-18T05:27:49.790Z,55798.09
2023-04-18T05:30:19.889Z,55796.09
2023-04-18T05:32:48.298Z,55821.94
2023-04-18T05:35:16.897Z,55911.47
2023-04-18T05:37:46.116Z,55863.72
2023-04-18T05:40:15.409Z,55877.66
2023-04-18T05:42:43.891Z,55821.94
2023-04-18T05:45:13.076Z,55855.78
2023-04-18T05:47:43.022Z,55889.59
2023-04-18T05:50:11.871Z,55911.47
2023-04-18T05:52:40.426Z,55961.22
2023-04-18T05:55:09.443Z,56028.84
2023-04-18T05:57:37.922Z,56024.88
2023-04-18T06:00:10.228Z,56012.94
2023-04-18T06:02:42.967Z,56114.41
2023-04-18T06:05:12.175Z,56128.34
2023-04-18T06:07:40.749Z,56196.00
2023-04-18T06:10:13.494Z,56275.56
2023-04-18T06:12:42.312Z,56267.63
2023-04-18T06:15:12.240Z,56311.38
2023-04-18T06:17:42.864Z,56247.72
2023-04-18T06:20:12.202Z,56291.50
2023-04-18T06:22:40.996Z,56192.00
2023-04-18T06:25:10.846Z,56301.44
2023-04-18T06:27:39.572Z,56243.75
2023-04-18T06:30:09.098Z,56160.19
2023-04-18T06:32:37.765Z,56100.47
2023-04-18T06:35:08.390Z,56136.28
2023-04-18T06:37:36.873Z,55989.06
2023-04-18T06:40:05.860Z,55949.28
2023-04-18T06:42:34.325Z,56170.13
2023-04-18T06:45:03.689Z,55987.09
2023-04-18T06:47:32.404Z,55833.88
2023-04-18T06:50:00.951Z,55716.50
2023-04-18T06:52:30.919Z,55786.16
2023-04-18T06:54:59.614Z,55623.03
2023-04-18T06:57:28.359Z,55553.41
2023-04-18T06:59:56.753Z,55623.03
2023-04-18T07:02:25.417Z,55571.28
2023-04-18T07:04:54.123Z,55619.03
2023-04-18T07:07:22.697Z,55438.03
2023-04-18T07:09:52.896Z,55241.09
2023-04-18T07:12:21.369Z,55233.13
2023-04-18T07:14:49.828Z,55010.38
2023-04-18T07:17:18.419Z,54958.66
2023-04-18T07:19:46.878Z,54847.28
2023-04-18T07:22:15.396Z,54797.56
2023-04-18T07:24:44.209Z,54743.84
2023-04-18T07:27:14.197Z,54672.25
2023-04-18T07:29:42.644Z,54580.78
2023-04-18T07:32:11.725Z,54499.25
2023-04-18T07:34:40.487Z,54471.41
2023-04-18T07:37:09.312Z,54473.41
2023-04-18T07:39:37.815Z,54316.28
2023-04-18T07:42:06.525Z,54278.50
2023-04-18T07:44:37.957Z,54200.97
2023-04-18T07:47:11.261Z,54198.97
2023-04-18T07:49:40.141Z,54147.28
2023-04-18T07:52:08.660Z,54147.28
2023-04-18T07:54:37.118Z,54087.63
2023-04-18T07:57:05.696Z,54035.91
2023-04-18T07:59:34.204Z,54006.09
2023-04-18T08:02:04.689Z,54047.84
2023-04-18T08:04:33.315Z,54012.06
2023-04-18T08:07:01.917Z,54004.09
2023-04-18T08:09:30.832Z,53972.28
2023-04-18T08:12:00.387Z,53972.28
2023-04-18T08:14:29.010Z,53940.47
2023-04-18T08:16:57.676Z,53944.47
2023-04-18T08:19:27.832Z,53950.44
2023-04-18T08:22:08.095Z,53942.47
2023-04-18T08:24:36.537Z,53940.47
2023-04-18T08:27:05.221Z,53936.50
2023-04-18T08:29:34.130Z,53920.59
2023-04-18T08:32:03.025Z,53910.66
2023-04-18T08:34:38.190Z,53894.75
2023-04-18T08:37:07.388Z,53890.78
2023-04-18T08:39:36.381Z,53910.66
2023-04-18T08:42:07.255Z,53902.69
2023-04-18T08:44:37.523Z,53888.78
2023-04-18T08:47:09.101Z,53872.88
2023-04-18T08:49:38.891Z,53862.94
2023-04-18T08:52:12.504Z,53860.94
2023-04-18T08:54:43.228Z,53864.94
2023-04-18T08:57:14.132Z,53853.00
2023-04-18T08:59:46.342Z,53851.00
2023-04-18T09:02:16.683Z,53864.94
2023-04-18T09:04:49.665Z,53862.94
2023-04-18T09:07:18.980Z,53874.88
2023-04-18T09:09:49.221Z,53872.88
2023-04-18T09:12:19.725Z,53896.75
2023-04-18T09:14:50.275Z,53876.84
2023-04-18T09:17:33.533Z,53874.88
2023-04-18T09:20:06.437Z,53888.78
2023-04-18T09:22:47.311Z,53860.94
2023-04-18T09:25:27.375Z,53860.94
2023-04-18T09:27:57.371Z,53833.13
2023-04-18T09:30:34.366Z,53849.03
2023-04-18T09:33:06.229Z,53845.03
2023-04-18T09:35:37.013Z,53817.22
2023-04-18T09:38:06.029Z,53825.16
2023-04-18T09:40:34.513Z,53791.34
2023-04-18T09:43:19.369Z,53789.38
2023-04-18T09:45:49.192Z,53813.22
2023-04-18T09:48:17.615Z,53799.31
2023-04-18T09:50:48.722Z,53797.31
2023-04-18T09:53:21.106Z,53767.50
2023-04-18T09:55:52.890Z,53809.25
2023-04-18T09:58:23.593Z,53773.47
2023-04-18T10:00:54.450Z,53781.41
2023-04-18T10:03:29.893Z,53793.34
2023-04-18T10:05:59.965Z,53773.47
2023-04-18T10:08:28.736Z,53793.34
2023-04-18T10:10:58.871Z,53793.34
2023-04-18T10:13:29.356Z,53807.25
2023-04-18T10:15:58.669Z,53809.25
2023-04-18T10:18:27.157Z,53749.59
2023-04-18T10:21:04.489Z,53761.53
2023-04-18T10:23:37.828Z,53773.47
2023-04-18T10:26:06.604Z,53787.38
2023-04-18T10:28:55.193Z,53785.41
2023-04-18T10:31:24.722Z,53777.44
2023-04-18T10:34:04.669Z,53765.50
2023-04-18T10:36:36.179Z,53763.53
2023-04-18T10:39:22.452Z,53721.78
2023-04-18T10:41:51.972Z,53735.69
2023-04-18T10:44:22.729Z,53717.78
2023-04-18T10:47:24.951Z,53757.56
2023-04-18T10:50:01.480Z,53757.56
2023-04-18T10:52:32.278Z,53737.69
2023-04-18T10:55:18.599Z,53737.69
2023-04-18T10:57:48.924Z,53757.56
2023-04-18T11:00:20.689Z,53733.69
2023-04-18T11:02:51.398Z,53701.88
2023-04-18T11:05:22.993Z,53729.72
2023-04-18T11:07:53.065Z,53697.91
2023-04-18T11:10:23.086Z,53731.72
2023-04-18T11:12:51.948Z,53699.91
2023-04-18T11:15:22.939Z,53693.94
2023-04-18T11:18:00.537Z,53689.97
2023-04-18T11:20:30.516Z,53666.09
2023-04-18T11:23:01.483Z,53632.31
2023-04-18T11:25:31.985Z,53693.94
2023-04-18T11:28:02.255Z,53670.09
2023-04-18T11:30:38.521Z,53672.06
2023-04-18T11:33:08.636Z,53646.22
2023-04-18T11:35:41.276Z,53678.03
2023-04-18T11:38:13.810Z,53701.88
2023-04-18T11:40:50.138Z,53654.19
2023-04-18T11:43:22.248Z,53668.09
2023-04-18T11:45:55.358Z,53662.13
2023-04-18T11:48:24.169Z,53701.88
2023-04-18T11:50:52.774Z,53701.88
2023-04-18T11:53:35.629Z,53701.88
2023-04-18T11:56:04.808Z,53741.66
2023-04-18T11:58:34.353Z,53707.84
2023-04-18T12:01:17.381Z,53737.69
2023-04-18T12:04:00.865Z,53727.75
2023-04-18T12:06:29.755Z,53787.38
2023-04-18T12:09:02.414Z,53737.69
2023-04-18T12:11:30.858Z,53739.66
2023-04-18T12:13:59.253Z,53729.72
2023-04-18T12:16:29.476Z,53721.78
2023-04-18T12:19:01.644Z,53737.69
2023-04-18T12:21:33.155Z,53769.50
2023-04-18T12:24:15.413Z,53707.84
2023-04-18T12:26:46.915Z,53713.81
2023-04-18T12:29:15.413Z,53713.81
2023-04-18T12:31:43.954Z,53656.16
2023-04-18T12:34:12.768Z,53666.09
2023-04-18T12:36:42.208Z,53674.06
2023-04-18T12:39:12.224Z,53608.44
2023-04-18T12:41:40.675Z,53658.16
2023-04-18T12:44:09.458Z,53588.56
2023-04-18T12:46:37.951Z,53580.63
2023-04-18T12:49:06.445Z,53501.09
2023-04-18T12:51:34.927Z,53540.84
2023-04-18T12:54:03.583Z,53590.56
2023-04-18T12:56:34.516Z,53590.56
2023-04-18T12:59:03.122Z,53594.53
2023-04-18T13:01:31.949Z,53534.88
2023-04-18T13:04:11.637Z,53499.09
2023-04-18T13:06:41.713Z,53437.47
2023-04-18T13:09:10.561Z,53439.47
2023-04-18T13:11:40.771Z,53409.63
2023-04-18T13:14:09.486Z,53411.63
2023-04-18T13:16:38.028Z,53435.47
2023-04-18T13:19:06.518Z,53497.13
2023-04-18T13:21:35.114Z,53554.78
2023-04-18T13:24:03.538Z,53566.69
2023-04-18T13:26:35.606Z,53534.88
2023-04-18T13:29:06.112Z,53602.47
2023-04-18T13:31:34.548Z,53483.19
2023-04-18T13:34:03.091Z,53445.44
2023-04-18T13:36:34.836Z,53499.09
2023-04-18T13:39:05.690Z,53439.47
2023-04-18T13:41:35.446Z,53439.47
2023-04-18T13:44:05.577Z,53522.97
2023-04-18T13:46:34.059Z,53542.84
2023-04-18T13:49:02.619Z,53515.00
2023-04-18T13:51:31.736Z,53556.75
2023-04-18T13:54:01.257Z,53584.59
2023-04-18T13:56:30.222Z,53556.75
2023-04-18T13:58:58.865Z,53574.66
2023-04-18T14:01:29.200Z,53560.72
2023-04-18T14:03:57.869Z,53588.56
2023-04-18T14:06:27.827Z,53614.41
2023-04-18T14:08:56.399Z,53628.31
2023-04-18T14:11:24.991Z,53568.69
2023-04-18T14:13:53.528Z,53505.06
2023-04-18T14:16:22.308Z,53507.06
2023-04-18T14:18:53.914Z,53463.31
2023-04-18T14:21:22.664Z,53479.22
2023-04-18T14:23:53.158Z,53485.19
2023-04-18T14:26:22.291Z,53487.19
2023-04-18T14:28:50.788Z,53503.06
2023-04-18T14:31:19.198Z,53520.97
2023-04-18T14:33:47.760Z,53485.19
2023-04-18T14:36:17.607Z,53499.09
2023-04-18T14:38:48.717Z,53483.19
2023-04-18T14:41:17.358Z,53443.44
2023-04-18T14:43:46.132Z,53475.25
2023-04-18T14:46:16.577Z,53459.34
2023-04-18T14:48:46.339Z,53441.44
2023-04-18T14:51:17.700Z,53495.13
2023-04-18T14:53:46.750Z,53515.00
2023-04-18T14:56:16.204Z,53509.03
2023-04-18T14:58:44.769Z,53513.03
2023-04-18T15:01:13.159Z,53530.91
2023-04-18T15:03:41.720Z,53530.91
2023-04-18T15:06:10.526Z,53507.06
2023-04-18T15:08:40.724Z,53513.03
2023-04-18T15:11:09.567Z,53558.75
2023-04-18T15:13:38.365Z,53554.78
2023-04-18T15:16:07.851Z,53554.78
2023-04-18T15:18:36.362Z,53538.88
2023-04-18T15:21:05.041Z,53515.00
2023-04-18T15:23:34.276Z,53471.28
2023-04-18T15:26:04.359Z,53499.09
2023-04-18T15:28:32.966Z,53507.06
2023-04-18T15:31:01.773Z,53499.09
2023-04-18T15:33:30.352Z,53495.13
2023-04-18T15:35:58.856Z,53483.19
2023-04-18T15:38:27.535Z,53522.97
2023-04-18T15:40:56.018Z,53489.16
2023-04-18T15:43:25.923Z,53518.97
2023-04-18T15:45:54.561Z,53493.13
2023-04-18T15:48:23.213Z,53471.28
2023-04-18T15:50:52.501Z,53493.13
2023-04-18T15:53:21.073Z,53489.16
2023-04-18T15:55:49.431Z,53471.28
2023-04-18T15:58:17.866Z,53487.19
2023-04-18T16:00:47.830Z,53467.28
2023-04-18T16:03:16.506Z,53487.19
2023-04-18T16:05:45.123Z,53471.28
2023-04-18T16:08:13.613Z,53471.28
2023-04-18T16:10:42.328Z,53487.19
2023-04-18T16:13:11.089Z,53485.19
2023-04-18T16:15:41.640Z,53465.31
2023-04-18T16:18:11.952Z,53493.13
2023-04-18T16:20:40.402Z,53497.13
2023-04-18T16:23:09.018Z,53499.09
2023-04-18T16:25:37.568Z,53489.16
2023-04-18T16:28:06.252Z,53503.06
2023-04-18T16:30:34.707Z,53505.06
2023-04-18T16:33:03.929Z,53503.06
2023-04-18T16:35:33.993Z,53473.25
2023-04-18T16:38:02.422Z,53483.19
2023-04-18T16:40:32.129Z,53515.00
2023-04-18T16:43:00.691Z,53481.22
2023-04-18T16:45:29.613Z,53503.06
2023-04-18T16:47:58.582Z,53511.03
2023-04-18T16:50:27.929Z,53489.16
2023-04-18T16:52:57.874Z,53489.16
2023-04-18T16:55:26.947Z,53497.13
2023-04-18T16:57:55.692Z,53483.19
2023-04-18T17:00:24.434Z,53503.06
2023-04-18T17:02:53.283Z,53499.09
2023-04-18T17:05:23.246Z,53517.00
2023-04-18T17:07:51.763Z,53511.03
2023-04-18T17:10:21.656Z,53483.19
2023-04-18T17:12:50.177Z,53485.19
2023-04-18T17:15:19.983Z,53513.03
2023-04-18T17:17:48.696Z,53507.06
2023-04-18T17:20:17.996Z,53515.00
2023-04-18T17:22:46.572Z,53522.97
2023-04-18T17:25:15.392Z,53558.75
2023-04-18T17:27:45.946Z,53534.88
2023-04-18T17:30:15.796Z,53562.72
2023-04-18T17:32:46.129Z,53550.78
2023-04-18T17:35:15.691Z,53550.78
2023-04-18T17:37:44.096Z,53566.69
2023-04-18T17:40:13.235Z,53552.78
2023-04-18T17:42:41.673Z,53564.72
2023-04-18T17:45:11.816Z,53590.56
2023-04-18T17:47:41.358Z,53562.72
2023-04-18T17:50:10.515Z,53592.53
2023-04-18T17:52:39.660Z,53588.56
2023-04-18T17:55:08.908Z,53566.69
2023-04-18T17:57:37.421Z,53628.31
2023-04-18T18:00:10.659Z,53622.38
2023-04-18T18:02:42.912Z,53606.47
2023-04-18T18:05:14.296Z,53630.31
2023-04-18T18:07:47.495Z,53642.25
2023-04-18T18:10:19.534Z,53632.31
2023-04-18T18:12:47.975Z,53634.28
2023-04-18T18:15:16.671Z,53628.31
2023-04-18T18:17:48.854Z,53642.25
2023-04-18T18:20:18.327Z,53632.31
2023-04-18T18:22:47.384Z,53654.19
2023-04-18T18:25:16.396Z,53640.25
2023-04-18T18:27:44.849Z,53658.16
2023-04-18T18:30:13.826Z,53638.28
2023-04-18T18:32:42.395Z,53662.13
2023-04-18T18:35:15.826Z,53686.00
2023-04-18T18:37:44.523Z,53676.03
2023-04-18T18:40:14.587Z,53678.03
2023-04-18T18:42:49.568Z,53693.94
2023-04-18T18:45:19.809Z,53693.94
2023-04-18T18:47:49.025Z,53686.00
2023-04-18T18:50:19.030Z,53747.63
2023-04-18T18:52:47.626Z,53741.66
2023-04-18T18:55:19.237Z,53761.53
2023-04-18T18:57:48.336Z,53745.63
2023-04-18T19:00:17.157Z,53745.63
2023-04-18T19:02:46.191Z,53751.59
2023-04-18T19:05:14.957Z,53769.50
2023-04-18T19:07:44.965Z,53737.69
2023-04-18T19:10:13.844Z,53761.53
2023-04-18T19:12:43.236Z,53775.47
2023-04-18T19:15:13.154Z,53785.41
2023-04-18T19:17:41.853Z,53741.66
2023-04-18T19:20:11.243Z,53781.41
2023-04-18T19:22:40.037Z,53805.28
2023-04-18T19:25:11.090Z,53791.34
2023-04-18T19:27:39.624Z,53825.16
2023-04-18T19:30:10.714Z,53854.97
2023-04-18T19:32:39.408Z,53819.19
2023-04-18T19:35:09.927Z,53821.19
2023-04-18T19:37:38.377Z,53839.06
2023-04-18T19:40:10.006Z,53858.97
2023-04-18T19:42:38.644Z,53831.13
2023-04-18T19:45:08.908Z,53860.94
2023-04-18T19:47:38.141Z,53874.88
2023-04-18T19:50:08.493Z,53851.00
2023-04-18T19:52:37.226Z,53894.75
2023-04-18T19:55:06.377Z,53888.78
2023-04-18T19:57:41.312Z,53882.81
2023-04-18T20:00:11.564Z,53904.69
2023-04-18T20:02:46.455Z,53892.75
2023-04-18T20:05:15.340Z,53888.78
2023-04-18T20:07:43.873Z,53936.50
2023-04-18T20:10:12.549Z,53912.66
2023-04-18T20:12:42.564Z,53934.50
2023-04-18T20:15:12.031Z,53908.66
2023-04-18T20:17:40.734Z,53936.50
2023-04-18T20:20:11.418Z,53904.69
2023-04-18T20:22:40.587Z,53938.50
2023-04-18T20:25:09.676Z,53948.44
2023-04-18T20:27:38.258Z,53914.63
2023-04-18T20:30:09.813Z,53924.56
2023-04-18T20:32:38.699Z,53950.44
2023-04-18T20:35:08.544Z,53924.56
2023-04-18T20:37:37.110Z,53968.31
2023-04-18T20:40:10.905Z,53960.38
2023-04-18T20:42:39.942Z,54012.06
2023-04-18T20:45:11.853Z,54000.13
2023-04-18T20:47:41.462Z,54006.09
2023-04-18T20:50:11.070Z,54008.09
2023-04-18T20:52:42.900Z,54000.13
2023-04-18T20:55:12.143Z,53984.22
2023-04-18T20:57:40.919Z,54014.06
2023-04-18T21:00:12.205Z,54055.81
2023-04-18T21:02:41.398Z,54029.97
2023-04-18T21:05:10.646Z,53994.16
2023-04-18T21:07:39.218Z,54033.94
2023-04-18T21:10:09.084Z,54039.91
2023-04-18T21:12:37.644Z,54016.03
2023-04-18T21:15:07.293Z,54027.97
2023-04-18T21:17:37.319Z,54057.78
2023-04-18T21:20:08.206Z,54031.94
2023-04-18T21:22:37.072Z,54014.06
2023-04-18T21:25:06.126Z,54067.75
2023-04-18T21:27:34.713Z,54047.84
2023-04-18T21:30:04.929Z,54035.91
2023-04-18T21:32:33.789Z,54027.97
2023-04-18T21:35:03.781Z,54043.88
2023-04-18T21:37:32.789Z,54069.72
2023-04-18T21:40:01.696Z,54071.72
2023-04-18T21:42:30.562Z,54087.63
2023-04-18T21:44:58.975Z,54093.59
2023-04-18T21:47:27.379Z,54059.78
2023-04-18T21:49:55.893Z,54111.47
2023-04-18T21:52:25.956Z,54103.53
2023-04-18T21:54:54.412Z,54063.75
2023-04-18T21:57:23.316Z,54079.66
2023-04-18T21:59:51.992Z,54079.66
2023-04-18T22:02:20.473Z,54109.50
2023-04-18T22:04:49.377Z,54091.59
2023-04-18T22:07:18.885Z,54123.41
2023-04-18T22:09:48.837Z,54125.41
2023-04-18T22:12:17.458Z,54107.50
2023-04-18T22:14:48.574Z,54125.41
2023-04-18T22:17:17.107Z,54147.28
2023-04-18T22:19:45.724Z,54113.47
2023-04-18T22:22:14.192Z,54119.44
2023-04-18T22:24:44.428Z,54103.53
2023-04-18T22:27:15.444Z,54073.69
2023-04-18T22:29:43.959Z,54063.75
2023-04-18T22:32:12.364Z,54087.63
2023-04-18T22:34:40.840Z,54055.81
2023-04-18T22:37:09.561Z,54107.50
2023-04-18T22:39:37.922Z,54047.84
2023-04-18T22:42:06.442Z,54055.81
2023-04-18T22:44:36.457Z,54067.75
2023-04-18T22:47:05.108Z,54043.88
2023-04-18T22:49:34.267Z,54020.00
2023-04-18T22:52:02.678Z,54024.00
2023-04-18T22:54:31.179Z,54029.97
2023-04-18T22:56:59.659Z,54033.94
2023-04-18T22:59:28.055Z,54047.84
2023-04-18T23:01:58.206Z,54020.00
2023-04-18T23:04:29.937Z,54031.94
2023-04-18T23:06:58.734Z,54043.88
2023-04-18T23:09:27.642Z,54047.84
2023-04-18T23:11:56.701Z,54020.00
2023-04-18T23:14:25.565Z,54024.00
2023-04-18T23:16:54.912Z,54029.97
2023-04-18T23:19:25.817Z,54020.00
2023-04-18T23:21:54.405Z,54018.03
2023-04-18T23:24:23.323Z,54035.91
2023-04-18T23:26:51.722Z,54027.97
2023-04-18T23:29:20.345Z,53998.16
2023-04-18T23:31:48.969Z,54020.00
2023-04-18T23:34:17.581Z,54020.00
2023-04-18T23:36:47.454Z,54012.06
2023-04-18T23:39:18.573Z,54020.00
2023-04-18T23:41:47.030Z,54020.00
2023-04-18T23:44:15.633Z,54004.09
2023-04-18T23:46:44.275Z,54035.91
2023-04-18T23:49:12.863Z,54025.97
2023-04-18T23:51:41.251Z,54059.78
2023-04-18T23:54:11.381Z,54035.91
2023-04-18T23:56:39.721Z,54059.78
2023-04-18T23:59:08.069Z,54035.91
